Time;durP1;ratioP1;P1;durP2;ratioP2;P2;SDS_P1;SDS_P2;PMS_P1;PMS_P2;Temp;Humidity;BMP_temperature;BMP_pressure;BME280_temperature;BME280_humidity;BME280_pressure;Samples;Min_cycle;Max_cycle;Signal;HPM_P1;HPM_P2
2022/10/19 00:01:23;;;;;;;0.45;0.30;;;10.40;99.90;;;;;;4897608;29;20139;-74
2022/10/19 00:03:51;;;;;;;0.35;0.30;;;10.30;99.90;;;;;;4897793;29;20052;-73
2022/10/19 00:06:24;;;;;;;0.22;0.20;;;10.40;99.90;;;;;;4884868;29;20063;-73
2022/10/19 00:08:51;;;;;;;1.05;0.40;;;10.20;99.90;;;;;;4896973;29;20125;-74
2022/10/19 00:11:17;;;;;;;0.57;0.40;;;10.40;99.90;;;;;;4897096;29;20055;-74
2022/10/19 00:13:43;;;;;;;0.40;0.30;;;10.40;99.90;;;;;;4881850;29;20044;-74
2022/10/19 00:16:11;;;;;;;0.20;0.20;;;10.20;99.90;;;;;;4897053;29;20048;-74
2022/10/19 00:18:38;;;;;;;0.50;0.40;;;10.40;99.90;;;;;;4897459;29;20048;-74
2022/10/19 00:21:05;;;;;;;0.47;0.40;;;10.30;99.90;;;;;;4897141;29;20407;-74
2022/10/19 00:23:31;;;;;;;0.38;0.30;;;10.20;99.90;;;;;;4910560;29;20460;-74
2022/10/19 00:25:57;;;;;;;0.57;0.50;;;10.20;99.90;;;;;;4886012;29;20052;-74
2022/10/19 00:28:23;;;;;;;0.80;0.50;;;10.20;99.90;;;;;;4895834;29;20068;-74
2022/10/19 00:30:49;;;;;;;0.73;0.50;;;10.50;99.90;;;;;;4895209;29;20040;-74
2022/10/19 00:33:20;;;;;;;0.60;0.30;;;10.40;99.90;;;;;;4878888;29;20087;-74
2022/10/19 00:35:47;;;;;;;0.70;0.50;;;10.50;99.90;;;;;;4896908;29;20095;-74
2022/10/19 00:38:13;;;;;;;0.28;0.28;;;10.50;99.90;;;;;;4892047;29;20084;-74
2022/10/19 00:40:40;;;;;;;0.43;0.38;;;10.30;99.90;;;;;;4876478;29;20397;-74
2022/10/19 00:43:15;;;;;;;0.20;0.20;;;10.40;99.90;;;;;;4896998;29;20060;-74
2022/10/19 00:45:41;;;;;;;0.52;0.30;;;10.30;99.90;;;;;;4891237;29;20420;-74
2022/10/19 00:48:09;;;;;;;0.20;0.20;;;10.40;99.90;;;;;;4881808;29;20495;-73
2022/10/19 00:50:36;;;;;;;0.52;0.32;;;10.70;99.90;;;;;;4887077;29;20056;-74
2022/10/19 00:53:02;;;;;;;0.93;0.40;;;10.60;99.90;;;;;;4894547;29;20048;-74
2022/10/19 00:55:28;;;;;;;0.40;0.30;;;10.40;99.90;;;;;;4895530;29;20040;-74
2022/10/19 01:01:44;;;;;;;0.40;0.20;;;10.70;99.90;;;;;;5827211;23;20037;31
2022/10/19 01:04:44;;;;;;;0.30;0.10;;;10.70;99.90;;;;;;5475054;23;21216;31
2022/10/19 01:07:11;;;;;;;0.28;0.20;;;10.50;99.90;;;;;;4929877;23;20528;-75
2022/10/19 01:09:36;;;;;;;0.28;0.22;;;10.70;99.90;;;;;;4920751;29;20455;-75
2022/10/19 01:12:26;;;;;;;0.85;0.40;;;10.80;99.90;;;;;;4942686;29;20110;-75
2022/10/19 01:15:16;;;;;;;0.22;0.20;;;10.80;99.90;;;;;;4948617;29;20055;-75
2022/10/19 01:18:04;;;;;;;0.38;0.30;;;10.80;99.90;;;;;;4940543;29;20054;-75
2022/10/19 01:20:46;;;;;;;0.47;0.30;;;10.50;99.90;;;;;;4948840;29;20045;-75
2022/10/19 01:23:24;;;;;;;0.52;0.30;;;10.60;99.90;;;;;;4936431;29;20062;-74
2022/10/19 01:26:24;;;;;;;0.30;0.30;;;10.80;99.90;;;;;;4950571;29;20225;-75
2022/10/19 01:29:08;;;;;;;1.08;0.30;;;10.60;99.90;;;;;;4933689;29;20051;-75
2022/10/19 01:31:50;;;;;;;1.02;0.30;;;10.70;99.90;;;;;;4949819;29;20046;-75
2022/10/19 01:34:25;;;;;;;0.45;0.30;;;10.60;99.90;;;;;;4945655;29;20071;-75
2022/10/19 01:37:03;;;;;;;0.80;0.40;;;10.60;99.90;;;;;;4936651;29;20047;-75
2022/10/19 01:40:22;;;;;;;0.22;0.20;;;10.60;99.90;;;;;;4949905;29;20051;-75
2022/10/19 01:43:01;;;;;;;0.20;0.10;;;10.80;99.90;;;;;;4875519;29;20041;-75
2022/10/19 01:45:34;;;;;;;0.40;0.10;;;10.80;99.90;;;;;;4942243;29;20047;-75
2022/10/19 01:48:13;;;;;;;1.08;0.20;;;10.60;99.90;;;;;;4933709;29;20043;-75
2022/10/19 01:50:46;;;;;;;0.13;0.10;;;10.90;99.90;;;;;;4927950;29;20475;-75
2022/10/19 01:53:14;;;;;;;0.10;0.10;;;10.60;99.90;;;;;;4952995;29;20186;-75
2022/10/19 01:55:43;;;;;;;0.10;0.10;;;10.70;99.90;;;;;;4936247;29;20102;-75
2022/10/19 01:58:14;;;;;;;1.08;0.30;;;10.70;99.90;;;;;;4952948;29;20035;-75
2022/10/19 02:00:42;;;;;;;0.57;0.30;;;10.60;99.90;;;;;;4951217;29;20043;-75
2022/10/19 02:03:10;;;;;;;0.40;0.20;;;10.80;99.90;;;;;;4953051;29;20372;-75
2022/10/19 02:05:38;;;;;;;0.30;0.30;;;10.80;99.90;;;;;;4956687;28;20568;-75
2022/10/19 02:08:11;;;;;;;0.35;0.28;;;10.80;99.90;;;;;;4957078;28;20116;-75
2022/10/19 02:10:41;;;;;;;0.20;0.05;;;10.80;99.90;;;;;;4957515;28;20074;-75
2022/10/19 02:13:08;;;;;;;0.77;0.38;;;10.80;99.90;;;;;;4938423;29;20050;-75
2022/10/19 02:15:37;;;;;;;0.85;0.20;;;10.60;99.90;;;;;;4943428;28;20568;-75
2022/10/19 02:18:05;;;;;;;0.60;0.30;;;10.80;99.90;;;;;;4960568;28;20052;-75
2022/10/19 02:20:33;;;;;;;0.47;0.15;;;10.70;99.90;;;;;;4947397;28;20038;-75
2022/10/19 02:22:59;;;;;;;0.30;0.20;;;10.60;99.90;;;;;;4935836;29;20130;-75
2022/10/19 02:25:25;;;;;;;0.20;0.20;;;10.80;99.90;;;;;;4930750;29;20209;-75
2022/10/19 02:27:50;;;;;;;;;;;10.70;99.90;;;;;;4962493;28;20129;-75
2022/10/19 02:30:19;;;;;;;0.73;0.13;;;10.80;99.90;;;;;;4963986;28;20012;-75
2022/10/19 02:32:44;;;;;;;0.35;0.30;;;10.50;99.90;;;;;;4941841;28;20046;-75
2022/10/19 02:35:13;;;;;;;0.52;0.20;;;10.40;99.90;;;;;;4957384;28;20047;-75
2022/10/19 02:37:39;;;;;;;0.60;0.13;;;10.60;99.90;;;;;;4969443;28;20085;-75
2022/10/19 02:40:05;;;;;;;;;;;10.40;99.90;;;;;;4956764;28;20038;-75
2022/10/19 02:42:44;;;;;;;0.38;0.20;;;10.50;99.90;;;;;;4953490;28;19926;-75
2022/10/19 02:45:21;;;;;;;0.52;0.17;;;10.40;99.90;;;;;;4951904;28;20046;-75
2022/10/19 02:48:11;;;;;;;0.47;0.17;;;10.20;99.90;;;;;;4970449;28;20060;-75
2022/10/19 02:50:37;;;;;;;0.50;0.10;;;10.10;99.90;;;;;;4942288;28;20042;-75
2022/10/19 02:53:03;;;;;;;0.55;0.20;;;10.00;99.90;;;;;;4943630;28;20351;-75
2022/10/19 02:55:29;;;;;;;0.38;0.10;;;10.00;99.90;;;;;;4954011;28;20050;-75
2022/10/19 02:57:56;;;;;;;0.20;0.10;;;9.90;99.90;;;;;;4971407;28;20068;-75
2022/10/19 03:00:21;;;;;;;;;;;9.90;99.90;;;;;;4945772;28;20050;-75
2022/10/19 03:02:47;;;;;;;0.40;0.10;;;9.80;99.90;;;;;;4958480;28;20493;-75
2022/10/19 03:05:13;;;;;;;0.38;0.15;;;9.70;99.90;;;;;;4956214;28;20137;-75
2022/10/19 03:07:38;;;;;;;0.50;0.17;;;9.70;99.90;;;;;;4955254;28;20080;-75
2022/10/19 03:10:04;;;;;;;0.22;0.05;;;9.60;99.90;;;;;;4953159;28;20039;-75
2022/10/19 03:12:30;;;;;;;0.30;0.00;;;9.60;99.90;;;;;;4957617;28;20054;-75
2022/10/19 03:14:56;;;;;;;0.55;0.20;;;9.50;99.90;;;;;;4940167;28;20046;-75
2022/10/19 03:17:21;;;;;;;0.77;0.30;;;9.60;99.90;;;;;;4959059;28;20055;-75
2022/10/19 03:19:47;;;;;;;0.22;0.15;;;9.30;99.90;;;;;;4951612;29;20375;-75
2022/10/19 03:22:13;;;;;;;0.40;0.20;;;9.50;99.90;;;;;;4953573;28;20067;-75
2022/10/19 03:24:39;;;;;;;0.35;0.10;;;9.20;99.90;;;;;;4955212;28;20527;-75
2022/10/19 03:27:05;;;;;;;0.28;0.10;;;9.40;99.90;;;;;;4945355;28;20046;-75
2022/10/19 03:29:31;;;;;;;0.32;0.10;;;9.10;99.90;;;;;;4963827;28;20133;-75
2022/10/19 03:31:56;;;;;;;0.50;0.10;;;9.10;99.90;;;;;;4967276;28;20070;-75
2022/10/19 03:34:22;;;;;;;0.00;0.00;;;9.10;99.90;;;;;;4952443;28;21950;-75
2022/10/19 03:36:48;;;;;;;0.20;0.10;;;9.10;99.90;;;;;;4953998;28;20047;-75
2022/10/19 03:39:14;;;;;;;0.45;0.15;;;9.30;99.90;;;;;;4939241;28;20518;-75
2022/10/19 03:41:41;;;;;;;0.30;0.10;;;9.30;99.90;;;;;;4964767;28;20038;-75
2022/10/19 03:44:08;;;;;;;0.45;0.10;;;9.40;99.90;;;;;;4952423;28;20039;-75
2022/10/19 03:46:35;;;;;;;0.30;0.10;;;9.20;99.90;;;;;;4955942;28;20042;-75
2022/10/19 03:49:01;;;;;;;0.30;0.10;;;9.40;99.90;;;;;;4938486;28;20035;-76
2022/10/19 03:51:28;;;;;;;;;;;9.20;99.90;;;;;;4951985;28;20163;-76
2022/10/19 03:53:56;;;;;;;0.27;0.10;;;9.50;99.90;;;;;;4966721;28;19929;-76
2022/10/19 03:56:24;;;;;;;0.43;0.17;;;9.50;99.90;;;;;;4950667;28;20481;-76
2022/10/19 03:58:51;;;;;;;0.73;0.20;;;9.30;99.90;;;;;;4954937;28;20046;-76
2022/10/19 04:01:21;;;;;;;0.28;0.10;;;9.30;99.90;;;;;;4954364;28;20118;-76
2022/10/19 04:03:47;;;;;;;0.52;0.10;;;9.60;99.90;;;;;;4961054;28;20061;-76
2022/10/19 04:06:15;;;;;;;0.50;0.20;;;9.30;99.90;;;;;;4964184;28;20059;-76
2022/10/19 04:08:41;;;;;;;0.20;0.10;;;9.30;99.90;;;;;;4959958;28;20050;-76
2022/10/19 04:11:09;;;;;;;;;;;9.30;99.90;;;;;;4934514;28;20599;-76
2022/10/19 04:13:35;;;;;;;0.45;0.10;;;9.60;99.90;;;;;;4947681;28;20266;-81
2022/10/19 04:16:02;;;;;;;0.20;0.10;;;9.60;99.90;;;;;;4948750;28;20108;-74
2022/10/19 04:18:27;;;;;;;;;;;9.40;99.90;;;;;;4945243;28;20181;-74
2022/10/19 04:20:58;;;;;;;0.35;0.17;;;9.70;99.90;;;;;;4948802;28;20001;-74
2022/10/19 04:23:26;;;;;;;0.20;0.10;;;9.40;99.90;;;;;;4940588;28;20039;-74
2022/10/19 04:25:52;;;;;;;0.30;0.10;;;9.50;99.90;;;;;;4948409;28;20124;-74
2022/10/19 04:28:18;;;;;;;0.22;0.10;;;9.40;99.90;;;;;;4951735;28;20066;-75
2022/10/19 04:30:43;;;;;;;0.10;0.08;;;9.40;99.90;;;;;;4949516;28;20047;-75
2022/10/19 04:33:09;;;;;;;0.52;0.10;;;9.70;99.90;;;;;;4947457;28;20058;-75
2022/10/19 04:35:34;;;;;;;1.23;0.20;;;9.70;99.90;;;;;;4949397;28;20046;-75
2022/10/19 04:38:00;;;;;;;0.57;0.20;;;9.80;99.90;;;;;;4949890;28;20050;-75
2022/10/19 04:40:26;;;;;;;0.32;0.15;;;9.70;99.90;;;;;;4949643;28;20030;-74
2022/10/19 04:42:51;;;;;;;0.50;0.05;;;9.60;99.90;;;;;;4956872;28;20046;-72
2022/10/19 04:45:17;;;;;;;0.30;0.10;;;9.80;99.90;;;;;;4935356;28;20039;-74
2022/10/19 04:47:43;;;;;;;0.52;0.10;;;9.70;99.90;;;;;;4953321;28;20050;-75
2022/10/19 04:50:08;;;;;;;0.57;0.20;;;9.90;99.90;;;;;;4954872;28;20742;-75
2022/10/19 04:52:34;;;;;;;2.35;0.50;;;10.00;99.90;;;;;;4929448;28;20585;-75
2022/10/19 04:55:00;;;;;;;0.80;0.20;;;10.10;99.90;;;;;;4966426;28;20038;-75
2022/10/19 04:57:26;;;;;;;1.67;0.28;;;9.90;99.90;;;;;;4949518;28;20093;-75
2022/10/19 04:59:52;;;;;;;0.25;0.10;;;10.00;99.90;;;;;;4933603;28;20482;-75
2022/10/19 05:02:17;;;;;;;0.50;0.20;;;10.00;99.90;;;;;;4930702;28;20433;-75
2022/10/19 05:04:43;;;;;;;0.57;0.20;;;10.20;99.90;;;;;;4948951;28;21084;-75
2022/10/19 05:07:09;;;;;;;0.68;0.20;;;10.20;99.90;;;;;;4914046;29;20070;-75
2022/10/19 05:09:34;;;;;;;0.57;0.20;;;10.20;99.90;;;;;;4930041;29;20047;-75
2022/10/19 05:12:00;;;;;;;0.10;0.10;;;10.10;99.90;;;;;;4880249;29;20102;-74
2022/10/19 05:14:25;;;;;;;0.88;0.22;;;10.10;99.90;;;;;;4925928;29;20043;-74
2022/10/19 05:16:51;;;;;;;0.15;0.10;;;10.20;99.90;;;;;;4909549;29;20043;-75
2022/10/19 05:19:17;;;;;;;0.00;0.00;;;10.20;99.90;;;;;;4927873;29;20047;-75
2022/10/19 05:21:43;;;;;;;0.57;0.10;;;10.10;99.90;;;;;;4945192;29;20338;-74
2022/10/19 05:24:12;;;;;;;0.40;0.10;;;10.30;99.90;;;;;;4927501;29;20039;-75
2022/10/19 05:26:37;;;;;;;1.02;0.20;;;10.20;99.90;;;;;;4916826;29;20915;-74
2022/10/19 05:29:03;;;;;;;0.68;0.20;;;10.10;99.90;;;;;;4931935;29;20093;-75
2022/10/19 05:31:31;;;;;;;1.33;0.32;;;10.20;99.90;;;;;;4933626;29;20578;-75
2022/10/19 05:33:58;;;;;;;1.27;0.20;;;10.30;99.90;;;;;;4932692;29;20070;-75
2022/10/19 05:36:33;;;;;;;1.40;0.25;;;10.30;99.90;;;;;;4932994;29;20048;-75
2022/10/19 05:39:01;;;;;;;3.67;0.85;;;10.30;99.90;;;;;;4932150;29;20127;-74
2022/10/19 05:41:26;;;;;;;0.93;0.30;;;10.30;99.90;;;;;;4934787;29;20059;-73
2022/10/19 05:43:54;;;;;;;0.85;0.20;;;10.40;99.90;;;;;;4932422;29;20509;-77
2022/10/19 05:46:20;;;;;;;1.35;0.38;;;10.40;99.90;;;;;;4931059;29;20063;-75
2022/10/19 05:48:46;;;;;;;0.88;0.28;;;10.40;99.90;;;;;;4931081;29;20104;-74
2022/10/19 05:51:15;;;;;;;2.38;0.55;;;10.40;99.90;;;;;;4932775;29;20043;-74
2022/10/19 05:53:41;;;;;;;1.58;0.57;;;10.50;99.90;;;;;;4927437;29;20119;-74
2022/10/19 05:56:11;;;;;;;2.55;0.47;;;10.50;99.90;;;;;;4929880;29;20031;-74
2022/10/19 05:58:37;;;;;;;1.52;0.30;;;10.60;99.90;;;;;;4930998;29;20505;-77
2022/10/19 06:01:03;;;;;;;1.50;0.28;;;10.60;99.90;;;;;;4933391;29;20035;-78
2022/10/19 06:03:29;;;;;;;0.50;0.20;;;10.60;99.90;;;;;;4931967;29;20043;-77
2022/10/19 06:05:55;;;;;;;0.85;0.20;;;10.50;99.90;;;;;;4917139;28;20047;-78
2022/10/19 06:08:22;;;;;;;0.73;0.30;;;10.50;99.90;;;;;;4938314;29;20095;-77
2022/10/19 06:10:48;;;;;;;0.38;0.10;;;10.50;99.90;;;;;;4937897;29;20055;-77
2022/10/19 06:13:16;;;;;;;0.45;0.20;;;10.40;99.90;;;;;;4922184;29;20047;-77
2022/10/19 06:15:41;;;;;;;0.82;0.20;;;10.50;99.90;;;;;;4937355;29;20487;-77
2022/10/19 06:18:10;;;;;;;0.45;0.10;;;10.50;99.90;;;;;;4937597;29;20101;-77
2022/10/19 06:20:37;;;;;;;0.57;0.20;;;10.40;99.90;;;;;;4937552;29;20043;-77
2022/10/19 06:23:04;;;;;;;0.38;0.10;;;10.50;99.90;;;;;;4937603;29;20075;-77
2022/10/19 06:25:30;;;;;;;0.25;0.10;;;10.40;99.90;;;;;;4937402;29;20054;-77
2022/10/19 06:27:56;;;;;;;;;;;10.50;99.90;;;;;;4938075;29;20047;-77
2022/10/19 06:30:22;;;;;;;0.20;0.10;;;10.50;99.90;;;;;;4937523;29;20290;-77
2022/10/19 06:32:48;;;;;;;0.43;0.10;;;10.40;99.90;;;;;;4937434;29;20422;-77
2022/10/19 06:35:14;;;;;;;0.17;0.10;;;10.50;99.90;;;;;;4937247;29;20071;-78
2022/10/19 06:37:41;;;;;;;0.17;0.10;;;10.40;99.90;;;;;;4936663;29;20051;-77
2022/10/19 06:40:07;;;;;;;;;;;10.50;99.90;;;;;;4938048;29;20600;-78
2022/10/19 06:42:33;;;;;;;0.93;0.25;;;10.50;99.90;;;;;;4937428;29;19922;-77
2022/10/19 06:44:59;;;;;;;0.55;0.20;;;10.50;99.90;;;;;;4921730;29;20103;-77
2022/10/19 06:47:30;;;;;;;1.05;0.30;;;10.50;99.90;;;;;;4937245;29;20565;-77
2022/10/19 06:49:56;;;;;;;2.08;0.40;;;10.50;99.90;;;;;;4937239;29;20202;-77
2022/10/19 06:52:22;;;;;;;;;;;10.60;99.90;;;;;;4921457;29;20406;-78
2022/10/19 06:54:48;;;;;;;0.40;0.10;;;10.70;99.90;;;;;;4937252;29;19922;-77
2022/10/19 06:57:13;;;;;;;0.55;0.25;;;10.70;99.90;;;;;;4937160;29;20039;-77
2022/10/19 06:59:39;;;;;;;0.65;0.20;;;10.70;99.90;;;;;;4937094;29;20143;-77
2022/10/19 07:02:05;;;;;;;0.55;0.10;;;10.80;99.90;;;;;;4937291;29;20486;-77
2022/10/19 07:04:31;;;;;;;0.82;0.20;;;10.90;99.90;;;;;;4936900;29;20054;-78
2022/10/19 07:06:56;;;;;;;0.52;0.10;;;10.80;99.90;;;;;;4952114;28;20051;-77
2022/10/19 07:09:22;;;;;;;0.80;0.15;;;10.90;99.90;;;;;;4956112;28;20050;-77
2022/10/19 07:11:48;;;;;;;0.28;0.10;;;10.80;99.90;;;;;;4939811;28;20081;-76
2022/10/19 07:14:13;;;;;;;0.30;0.10;;;10.90;99.90;;;;;;4955844;28;20046;-77
2022/10/19 07:16:39;;;;;;;0.22;0.00;;;10.90;99.90;;;;;;4955958;28;20149;-77
2022/10/19 07:19:05;;;;;;;0.82;0.13;;;11.00;99.90;;;;;;4956013;28;20043;-76
2022/10/19 07:21:31;;;;;;;0.30;0.10;;;11.00;99.90;;;;;;4956051;28;20046;-77
2022/10/19 07:23:57;;;;;;;0.17;0.10;;;10.90;99.90;;;;;;4955841;28;20118;-76
2022/10/19 07:26:26;;;;;;;0.50;0.10;;;11.00;99.90;;;;;;4940100;28;20485;-77
2022/10/19 07:28:54;;;;;;;0.38;0.10;;;11.00;99.90;;;;;;4955862;28;20058;-77
2022/10/19 07:31:22;;;;;;;1.50;0.30;;;11.10;99.90;;;;;;4955857;28;20046;-77
2022/10/19 07:34:06;;;;;;;0.50;0.13;;;11.10;99.90;;;;;;4939538;28;20496;-77
2022/10/19 07:36:34;;;;;;;0.43;0.20;;;11.20;99.90;;;;;;4939502;28;20431;-78
2022/10/19 07:39:05;;;;;;;0.43;0.10;;;11.20;99.90;;;;;;4956062;28;20109;-77
2022/10/19 07:41:32;;;;;;;0.10;0.10;;;11.30;99.90;;;;;;4955269;28;20043;-76
2022/10/19 07:43:58;;;;;;;0.40;0.10;;;11.30;99.90;;;;;;4955876;28;20078;-76
2022/10/19 07:46:25;;;;;;;;;;;11.30;99.90;;;;;;4955585;28;20129;-77
2022/10/19 07:48:51;;;;;;;0.35;0.15;;;11.40;99.90;;;;;;4955199;28;19922;-77
2022/10/19 07:51:18;;;;;;;0.47;0.10;;;11.50;99.90;;;;;;4955137;28;20047;-76
2022/10/19 07:53:45;;;;;;;0.63;0.20;;;11.50;99.90;;;;;;4955283;28;20054;-77
2022/10/19 07:56:12;;;;;;;0.60;0.20;;;11.50;99.90;;;;;;4938984;28;20117;-76
2022/10/19 07:58:37;;;;;;;0.85;0.13;;;11.50;99.90;;;;;;4955156;28;20130;-77
2022/10/19 08:01:09;;;;;;;1.10;0.25;;;11.60;99.90;;;;;;4955062;28;20126;-77
2022/10/19 08:03:35;;;;;;;1.50;0.30;;;11.60;99.90;;;;;;4955070;28;20486;-77
2022/10/19 08:06:02;;;;;;;0.73;0.30;;;11.70;99.90;;;;;;4954798;28;20059;-77
2022/10/19 08:08:28;;;;;;;0.30;0.10;;;11.80;99.90;;;;;;4955110;28;20059;-77
2022/10/19 08:10:54;;;;;;;1.02;0.20;;;11.80;99.90;;;;;;4954997;28;20630;-76
2022/10/19 08:13:20;;;;;;;2.00;0.50;;;11.90;99.90;;;;;;4954634;28;20053;-77
2022/10/19 08:15:46;;;;;;;1.00;0.28;;;11.90;99.90;;;;;;4954890;28;20050;-76
2022/10/19 08:18:12;;;;;;;0.43;0.20;;;11.90;99.90;;;;;;4955005;28;20540;-76
2022/10/19 08:20:41;;;;;;;1.42;0.25;;;12.00;99.90;;;;;;4954743;28;20047;-77
2022/10/19 08:23:07;;;;;;;1.13;0.32;;;12.00;99.90;;;;;;4955030;28;20129;-77
2022/10/19 08:25:32;;;;;;;0.90;0.30;;;12.10;99.90;;;;;;4954659;28;20503;-76
2022/10/19 08:27:58;;;;;;;0.57;0.10;;;12.10;99.90;;;;;;4954693;28;20050;-76
2022/10/19 08:30:24;;;;;;;0.30;0.10;;;12.20;99.90;;;;;;4938489;28;20047;-77
2022/10/19 08:32:49;;;;;;;0.17;0.15;;;12.20;99.90;;;;;;4939109;28;20077;-77
2022/10/19 08:35:15;;;;;;;0.65;0.20;;;12.20;99.90;;;;;;4954377;28;20050;-76
2022/10/19 08:37:41;;;;;;;0.70;0.20;;;12.30;99.90;;;;;;4939074;28;20190;-76
2022/10/19 08:40:17;;;;;;;1.00;0.43;;;12.30;99.90;;;;;;4954750;28;20046;-77
2022/10/19 08:42:59;;;;;;;1.45;0.30;;;12.30;99.90;;;;;;4954922;28;20371;-78
2022/10/19 08:45:41;;;;;;;1.30;0.30;;;12.40;99.90;;;;;;4954869;28;20059;-77
2022/10/19 08:48:28;;;;;;;1.38;0.30;;;12.40;99.90;;;;;;4954613;28;20081;-76
2022/10/19 08:50:56;;;;;;;0.68;0.20;;;12.40;99.90;;;;;;4938527;28;20047;-77
2022/10/19 08:53:31;;;;;;;2.05;0.40;;;12.40;99.90;;;;;;4954413;28;20066;-77
2022/10/19 08:56:21;;;;;;;2.70;0.60;;;12.40;99.90;;;;;;4954552;28;20051;-77
2022/10/19 08:59:07;;;;;;;2.20;0.60;;;12.40;99.90;;;;;;4954739;28;20057;-77
2022/10/19 09:01:47;;;;;;;2.88;0.40;;;12.40;99.90;;;;;;4959201;28;20042;-77
2022/10/19 09:04:32;;;;;;;1.65;0.40;;;12.50;99.90;;;;;;4960532;28;20049;-77
2022/10/19 09:07:15;;;;;;;1.38;0.50;;;12.50;99.90;;;;;;4960646;28;20517;-77
2022/10/19 09:09:44;;;;;;;2.83;0.45;;;12.60;99.90;;;;;;4960799;28;20054;-77
2022/10/19 09:12:16;;;;;;;0.88;0.28;;;12.60;99.90;;;;;;4960569;28;20544;-77
2022/10/19 09:15:05;;;;;;;2.58;0.40;;;12.60;99.90;;;;;;4961057;28;20046;-77
2022/10/19 09:17:32;;;;;;;1.77;0.52;;;12.70;99.90;;;;;;4960647;28;20058;-77
2022/10/19 09:20:15;;;;;;;1.98;0.55;;;12.80;99.90;;;;;;4944483;28;20406;-77
2022/10/19 09:22:42;;;;;;;0.80;0.30;;;12.80;99.90;;;;;;4960611;28;20151;-76
2022/10/19 09:25:19;;;;;;;2.47;0.40;;;12.90;99.90;;;;;;4960932;28;20042;-77
2022/10/19 09:27:46;;;;;;;;;;;12.90;99.90;;;;;;4961031;28;20055;-77
2022/10/19 09:30:22;;;;;;;1.40;0.40;;;12.90;99.90;;;;;;4960426;28;20020;-77
2022/10/19 09:32:54;;;;;;;3.47;0.80;;;12.90;99.90;;;;;;4960792;28;20193;-77
2022/10/19 09:35:29;;;;;;;2.75;0.70;;;12.90;99.90;;;;;;4960784;28;20047;-77
2022/10/19 09:37:55;;;;;;;1.58;0.47;;;13.00;99.90;;;;;;4960835;28;20247;-76
2022/10/19 09:40:22;;;;;;;;;;;13.00;99.90;;;;;;4960912;28;20668;-77
2022/10/19 09:42:55;;;;;;;1.77;0.50;;;13.00;99.90;;;;;;4960564;28;19922;-77
2022/10/19 09:45:43;;;;;;;1.58;0.50;;;13.00;99.90;;;;;;4960509;28;20069;-77
2022/10/19 09:48:19;;;;;;;;;;;13.00;99.90;;;;;;4960768;28;20042;-77
2022/10/19 09:50:50;;;;;;;0.90;0.20;;;12.90;99.90;;;;;;4944172;28;20383;-76
2022/10/19 09:53:20;;;;;;;1.15;0.45;;;13.00;99.90;;;;;;4944252;28;20042;-76
2022/10/19 09:55:52;;;;;;;1.30;0.30;;;13.00;99.90;;;;;;4960345;28;20086;-77
2022/10/19 09:58:19;;;;;;;2.15;0.35;;;13.00;99.90;;;;;;4960248;28;20054;-77
2022/10/19 10:00:45;;;;;;;2.40;0.32;;;13.00;99.90;;;;;;4944315;28;20478;-77
2022/10/19 10:03:42;;;;;;;1.45;0.40;;;12.90;99.90;;;;;;4960397;28;20042;-77
2022/10/19 10:06:13;;;;;;;2.78;0.65;;;13.00;99.90;;;;;;4933953;28;20142;-76
2022/10/19 10:08:45;;;;;;;1.30;0.30;;;12.90;99.90;;;;;;4968472;28;20057;-77
2022/10/19 10:11:22;;;;;;;1.65;0.38;;;13.00;99.90;;;;;;4955976;28;20058;-76
2022/10/19 10:13:50;;;;;;;1.23;0.40;;;13.00;99.90;;;;;;4968389;28;20057;-77
2022/10/19 10:16:19;;;;;;;1.17;0.30;;;13.00;99.90;;;;;;4963523;28;20125;-77
2022/10/19 10:18:54;;;;;;;1.95;0.50;;;13.10;99.90;;;;;;4962645;28;20070;-78
2022/10/19 10:21:23;;;;;;;2.80;0.90;;;13.10;99.90;;;;;;4961368;28;20490;-78
2022/10/19 10:24:05;;;;;;;1.38;0.50;;;13.10;99.90;;;;;;4957199;28;20039;-79
2022/10/19 10:26:40;;;;;;;3.72;0.70;;;13.20;99.90;;;;;;4957131;28;20059;-78
2022/10/19 10:29:25;;;;;;;2.60;0.60;;;13.10;99.90;;;;;;4956645;28;20540;-78
2022/10/19 10:31:57;;;;;;;1.83;0.50;;;13.20;99.90;;;;;;4956920;28;20513;-78
2022/10/19 10:34:39;;;;;;;2.38;0.50;;;13.30;99.90;;;;;;4956909;28;20397;-78
2022/10/19 10:37:09;;;;;;;2.40;0.55;;;13.30;99.90;;;;;;4956846;28;20077;-79
2022/10/19 10:39:43;;;;;;;2.60;0.63;;;13.30;99.90;;;;;;4956580;28;20038;-78
2022/10/19 10:42:13;;;;;;;2.20;0.60;;;13.30;99.90;;;;;;4956874;28;20109;-78
2022/10/19 10:44:49;;;;;;;2.88;0.70;;;13.30;99.90;;;;;;4956488;28;20514;-79
2022/10/19 10:47:20;;;;;;;1.90;0.47;;;13.30;99.90;;;;;;4956592;28;20042;-78
2022/10/19 10:50:06;;;;;;;1.52;0.52;;;13.30;99.90;;;;;;4956593;28;20051;-78
2022/10/19 10:52:32;;;;;;;1.60;0.57;;;13.30;99.90;;;;;;4956588;28;20079;-78
2022/10/19 10:55:15;;;;;;;0.43;0.28;;;13.30;99.90;;;;;;4956319;28;20753;-77
2022/10/19 10:57:45;;;;;;;1.70;0.40;;;13.40;99.90;;;;;;4956582;28;20043;-78
2022/10/19 11:00:22;;;;;;;2.15;0.60;;;13.50;99.90;;;;;;4956331;28;20487;-78
2022/10/19 11:03:03;;;;;;;1.25;0.30;;;13.40;99.90;;;;;;4956568;28;20046;-78
2022/10/19 11:05:57;;;;;;;0.75;0.40;;;13.50;99.90;;;;;;4955947;28;20117;-78
2022/10/19 11:09:05;;;;;;;1.92;0.50;;;13.70;99.90;;;;;;4937324;28;20050;-78
2022/10/19 11:11:35;;;;;;;1.33;0.40;;;13.80;99.90;;;;;;4919351;28;20054;-78
2022/10/19 11:14:28;;;;;;;2.35;0.45;;;13.90;99.90;;;;;;4956176;28;20133;-78
2022/10/19 11:16:57;;;;;;;3.03;0.70;;;14.00;99.90;;;;;;4955818;28;20047;-79
2022/10/19 11:19:39;;;;;;;2.08;0.75;;;14.00;99.90;;;;;;4956251;28;20050;-79
2022/10/19 11:22:34;;;;;;;2.20;0.70;;;13.90;99.90;;;;;;4956110;28;20101;-78
2022/10/19 11:25:05;;;;;;;1.52;0.40;;;14.00;99.90;;;;;;4955682;28;20178;-79
2022/10/19 11:28:00;;;;;;;1.45;0.43;;;13.90;99.90;;;;;;4956081;28;20076;-78
2022/10/19 11:30:30;;;;;;;2.92;0.75;;;14.00;99.90;;;;;;4939808;28;20050;-79
2022/10/19 11:33:31;;;;;;;2.40;0.50;;;14.00;99.90;;;;;;4955734;28;20549;-79
2022/10/19 11:36:00;;;;;;;3.00;0.70;;;14.00;99.90;;;;;;4859674;29;20080;-79
2022/10/19 11:39:07;;;;;;;1.85;0.60;;;14.00;99.90;;;;;;4938695;28;20051;-78
2022/10/19 11:42:02;;;;;;;1.27;0.50;;;14.00;99.90;;;;;;4919000;28;20051;-78
2022/10/19 11:45:00;;;;;;;1.10;0.40;;;14.20;99.90;;;;;;4955601;28;20057;-78
2022/10/19 11:47:28;;;;;;;0.98;0.40;;;14.40;99.90;;;;;;4955705;28;20047;-79
2022/10/19 11:50:24;;;;;;;2.80;0.60;;;14.50;99.90;;;;;;4939226;28;20054;-79
2022/10/19 11:53:11;;;;;;;2.10;0.60;;;14.40;99.90;;;;;;4955293;28;20034;-79
2022/10/19 11:55:52;;;;;;;2.65;0.73;;;14.30;99.90;;;;;;4955571;28;20133;-78
2022/10/19 11:58:41;;;;;;;1.67;0.50;;;14.10;99.90;;;;;;4955306;28;20434;-79
2022/10/19 12:01:21;;;;;;;1.02;0.32;;;14.30;99.90;;;;;;4955360;28;20129;-78
2022/10/19 12:04:09;;;;;;;2.13;0.63;;;14.40;99.90;;;;;;4955292;28;20078;-79
2022/10/19 12:07:00;;;;;;;2.20;0.68;;;14.30;99.90;;;;;;4954998;28;20168;-79
2022/10/19 12:10:05;;;;;;;2.08;0.50;;;14.20;99.90;;;;;;4955656;28;20056;-78
2022/10/19 12:12:35;;;;;;;2.92;0.90;;;14.10;99.90;;;;;;4942582;28;20500;-79
2022/10/19 12:15:25;;;;;;;2.28;0.70;;;13.90;99.90;;;;;;4954868;28;20054;-79
2022/10/19 12:17:53;;;;;;;2.67;0.50;;;14.10;99.90;;;;;;4955056;28;20042;-79
2022/10/19 12:20:23;;;;;;;2.53;0.65;;;14.40;99.90;;;;;;4954832;28;20054;-79
2022/10/19 12:22:49;;;;;;;1.25;0.50;;;14.60;99.90;;;;;;4954952;28;20057;-79
2022/10/19 12:25:16;;;;;;;1.92;0.70;;;15.00;99.90;;;;;;4954935;28;20486;-79
2022/10/19 12:27:45;;;;;;;3.20;0.50;;;15.20;99.90;;;;;;4954944;28;20120;-79
2022/10/19 12:30:20;;;;;;;1.35;0.45;;;15.10;99.90;;;;;;4953848;28;20489;-80
2022/10/19 12:33:07;;;;;;;2.08;0.55;;;15.00;99.90;;;;;;4951916;28;20051;-75
2022/10/19 12:35:47;;;;;;;1.23;0.43;;;14.80;99.90;;;;;;4932830;28;20054;-75
2022/10/19 12:38:12;;;;;;;1.08;0.40;;;14.70;99.90;;;;;;4946169;28;20047;-75
2022/10/19 12:41:09;;;;;;;1.85;0.60;;;14.60;99.90;;;;;;4954509;28;20042;-75
2022/10/19 12:43:39;;;;;;;1.27;0.40;;;14.40;99.90;;;;;;4954141;28;20039;-75
2022/10/19 12:46:22;;;;;;;2.10;0.60;;;14.30;99.90;;;;;;4953730;28;20405;-75
2022/10/19 12:49:29;;;;;;;1.70;0.68;;;14.10;99.90;;;;;;4952856;28;20046;-74
2022/10/19 12:51:59;;;;;;;2.00;0.40;;;14.00;99.90;;;;;;4904440;28;20643;-75
2022/10/19 12:54:28;;;;;;;1.45;0.40;;;14.10;99.90;;;;;;4933268;28;20043;-75
2022/10/19 12:56:56;;;;;;;2.40;0.65;;;14.30;99.90;;;;;;4952532;28;20065;-75
2022/10/19 12:59:25;;;;;;;2.97;0.60;;;14.70;99.90;;;;;;4951085;29;20039;-72
2022/10/19 13:01:52;;;;;;;1.35;0.45;;;15.10;99.90;;;;;;4953345;28;20064;-72
2022/10/19 13:04:30;;;;;;;1.65;0.65;;;15.50;99.90;;;;;;4953066;28;20109;-72
2022/10/19 13:06:56;;;;;;;4.07;0.98;;;15.60;99.90;;;;;;4950664;28;20061;-73
2022/10/19 13:09:32;;;;;;;1.58;0.50;;;15.80;99.90;;;;;;4954361;28;20059;-72
2022/10/19 13:12:13;;;;;;;3.38;0.70;;;16.10;99.90;;;;;;4953545;28;20050;-72
2022/10/19 13:14:59;;;;;;;2.97;0.73;;;16.20;99.90;;;;;;4951037;28;20418;-75
2022/10/19 13:17:36;;;;;;;2.03;0.70;;;16.20;99.90;;;;;;4948674;28;20541;-73
2022/10/19 13:20:14;;;;;;;1.65;0.50;;;16.30;99.90;;;;;;4917995;28;20043;-73